sensor_id;sensor_type;location;lat;lon;timestamp;temperature;humidity
66140;DHT22;52945;51.908;8.364;2024-02-14T00:01:46;9.40;68.70
66140;DHT22;52945;51.908;8.364;2024-02-14T00:04:47;9.30;68.70
66140;DHT22;52945;51.908;8.364;2024-02-14T00:07:48;9.30;68.60
66140;DHT22;52945;51.908;8.364;2024-02-14T00:10:49;9.40;68.60
66140;DHT22;52945;51.908;8.364;2024-02-14T00:13:49;9.40;68.60
66140;DHT22;52945;51.908;8.364;2024-02-14T00:16:50;9.50;68.60
66140;DHT22;52945;51.908;8.364;2024-02-14T00:19:51;9.50;68.40
66140;DHT22;52945;51.908;8.364;2024-02-14T00:22:51;9.50;68.30
66140;DHT22;52945;51.908;8.364;2024-02-14T00:25:52;9.50;68.30
66140;DHT22;52945;51.908;8.364;2024-02-14T00:28:52;9.50;68.20
66140;DHT22;52945;51.908;8.364;2024-02-14T00:31:53;9.50;68.20
66140;DHT22;52945;51.908;8.364;2024-02-14T00:34:54;9.50;68.10
66140;DHT22;52945;51.908;8.364;2024-02-14T00:37:54;9.60;68.30
66140;DHT22;52945;51.908;8.364;2024-02-14T00:40:55;9.60;68.30
66140;DHT22;52945;51.908;8.364;2024-02-14T00:43:56;9.70;68.20
66140;DHT22;52945;51.908;8.364;2024-02-14T00:46:57;9.70;68.30
66140;DHT22;52945;51.908;8.364;2024-02-14T00:50:03;9.70;68.10
66140;DHT22;52945;51.908;8.364;2024-02-14T00:53:03;9.70;68.10
66140;DHT22;52945;51.908;8.364;2024-02-14T00:56:04;9.70;68.10
66140;DHT22;52945;51.908;8.364;2024-02-14T00:59:06;9.70;68.10
66140;DHT22;52945;51.908;8.364;2024-02-14T01:02:08;9.70;68.20
66140;DHT22;52945;51.908;8.364;2024-02-14T01:05:08;9.70;68.20
66140;DHT22;52945;51.908;8.364;2024-02-14T01:08:09;9.80;68.10
66140;DHT22;52945;51.908;8.364;2024-02-14T01:11:11;9.80;68.10
66140;DHT22;52945;51.908;8.364;2024-02-14T01:14:12;9.90;68.20
66140;DHT22;52945;51.908;8.364;2024-02-14T01:17:15;9.90;68.20
66140;DHT22;52945;51.908;8.364;2024-02-14T01:20:16;10.00;68.20
66140;DHT22;52945;51.908;8.364;2024-02-14T01:23:17;10.00;68.40
66140;DHT22;52945;51.908;8.364;2024-02-14T01:26:17;10.00;69.00
66140;DHT22;52945;51.908;8.364;2024-02-14T01:29:18;10.10;69.70
66140;DHT22;52945;51.908;8.364;2024-02-14T01:32:19;10.00;70.40
66140;DHT22;52945;51.908;8.364;2024-02-14T01:35:20;10.00;70.80
66140;DHT22;52945;51.908;8.364;2024-02-14T01:38:26;10.10;71.10
66140;DHT22;52945;51.908;8.364;2024-02-14T01:41:27;10.10;71.20
66140;DHT22;52945;51.908;8.364;2024-02-14T01:44:27;10.10;71.10
66140;DHT22;52945;51.908;8.364;2024-02-14T01:47:28;10.00;71.20
66140;DHT22;52945;51.908;8.364;2024-02-14T01:50:29;10.10;71.10
66140;DHT22;52945;51.908;8.364;2024-02-14T01:53:32;10.10;71.30
66140;DHT22;52945;51.908;8.364;2024-02-14T01:56:33;10.10;71.50
66140;DHT22;52945;51.908;8.364;2024-02-14T01:59:34;10.10;71.50
66140;DHT22;52945;51.908;8.364;2024-02-14T02:02:37;10.00;71.50
66140;DHT22;52945;51.908;8.364;2024-02-14T02:05:40;10.10;71.60
66140;DHT22;52945;51.908;8.364;2024-02-14T02:08:43;10.10;71.60
66140;DHT22;52945;51.908;8.364;2024-02-14T02:11:49;10.10;71.70
66140;DHT22;52945;51.908;8.364;2024-02-14T02:14:49;10.10;71.60
66140;DHT22;52945;51.908;8.364;2024-02-14T02:17:50;10.10;71.70
66140;DHT22;52945;51.908;8.364;2024-02-14T02:20:53;10.10;71.90
66140;DHT22;52945;51.908;8.364;2024-02-14T02:23:54;10.10;71.80
66140;DHT22;52945;51.908;8.364;2024-02-14T02:26:55;10.10;71.70
66140;DHT22;52945;51.908;8.364;2024-02-14T02:29:57;10.20;71.90
66140;DHT22;52945;51.908;8.364;2024-02-14T02:32:57;10.10;71.80
66140;DHT22;52945;51.908;8.364;2024-02-14T02:35:58;10.20;71.70
66140;DHT22;52945;51.908;8.364;2024-02-14T02:38:59;10.20;71.60
66140;DHT22;52945;51.908;8.364;2024-02-14T02:42:00;10.20;71.50
66140;DHT22;52945;51.908;8.364;2024-02-14T02:45:01;10.20;71.40
66140;DHT22;52945;51.908;8.364;2024-02-14T02:48:06;10.20;71.40
66140;DHT22;52945;51.908;8.364;2024-02-14T02:51:07;10.20;71.40
66140;DHT22;52945;51.908;8.364;2024-02-14T02:54:07;10.30;71.20
66140;DHT22;52945;51.908;8.364;2024-02-14T02:57:09;10.20;70.90
66140;DHT22;52945;51.908;8.364;2024-02-14T03:00:11;10.20;70.90
66140;DHT22;52945;51.908;8.364;2024-02-14T03:03:16;10.30;71.00
66140;DHT22;52945;51.908;8.364;2024-02-14T03:06:16;10.30;70.90
66140;DHT22;52945;51.908;8.364;2024-02-14T03:09:17;10.40;71.00
66140;DHT22;52945;51.908;8.364;2024-02-14T03:12:18;10.30;70.90
66140;DHT22;52945;51.908;8.364;2024-02-14T03:15:19;10.40;70.80
66140;DHT22;52945;51.908;8.364;2024-02-14T03:18:20;10.40;70.70
66140;DHT22;52945;51.908;8.364;2024-02-14T03:21:21;10.40;70.90
66140;DHT22;52945;51.908;8.364;2024-02-14T03:24:24;10.40;70.80
66140;DHT22;52945;51.908;8.364;2024-02-14T03:27:27;10.50;70.90
66140;DHT22;52945;51.908;8.364;2024-02-14T03:30:28;10.50;70.90
66140;DHT22;52945;51.908;8.364;2024-02-14T03:33:30;10.50;71.00
66140;DHT22;52945;51.908;8.364;2024-02-14T03:36:31;10.50;71.10
66140;DHT22;52945;51.908;8.364;2024-02-14T03:39:33;10.50;71.20
66140;DHT22;52945;51.908;8.364;2024-02-14T03:42:34;10.50;71.20
66140;DHT22;52945;51.908;8.364;2024-02-14T03:45:35;10.50;71.10
66140;DHT22;52945;51.908;8.364;2024-02-14T03:48:36;10.60;71.20
66140;DHT22;52945;51.908;8.364;2024-02-14T03:51:36;10.60;71.20
66140;DHT22;52945;51.908;8.364;2024-02-14T03:54:37;10.60;71.20
66140;DHT22;52945;51.908;8.364;2024-02-14T03:57:37;10.60;71.30
66140;DHT22;52945;51.908;8.364;2024-02-14T04:00:39;10.60;71.50
66140;DHT22;52945;51.908;8.364;2024-02-14T04:03:39;10.60;71.50
66140;DHT22;52945;51.908;8.364;2024-02-14T04:06:40;10.60;71.70
66140;DHT22;52945;51.908;8.364;2024-02-14T04:09:42;10.60;72.00
66140;DHT22;52945;51.908;8.364;2024-02-14T04:12:43;10.70;72.00
66140;DHT22;52945;51.908;8.364;2024-02-14T04:15:44;10.70;72.00
66140;DHT22;52945;51.908;8.364;2024-02-14T04:18:45;10.70;72.00
66140;DHT22;52945;51.908;8.364;2024-02-14T04:21:46;10.70;72.30
66140;DHT22;52945;51.908;8.364;2024-02-14T04:24:47;10.70;72.40
66140;DHT22;52945;51.908;8.364;2024-02-14T04:27:47;10.70;72.50
66140;DHT22;52945;51.908;8.364;2024-02-14T04:30:48;10.80;72.60
66140;DHT22;52945;51.908;8.364;2024-02-14T04:33:48;10.80;72.70
66140;DHT22;52945;51.908;8.364;2024-02-14T04:36:52;10.80;73.00
66140;DHT22;52945;51.908;8.364;2024-02-14T04:39:52;10.80;73.40
66140;DHT22;52945;51.908;8.364;2024-02-14T04:42:53;10.80;73.70
66140;DHT22;52945;51.908;8.364;2024-02-14T04:45:54;10.80;73.70
66140;DHT22;52945;51.908;8.364;2024-02-14T04:48:54;10.80;73.80
66140;DHT22;52945;51.908;8.364;2024-02-14T04:51:55;10.80;73.80
66140;DHT22;52945;51.908;8.364;2024-02-14T04:54:56;10.90;74.00
66140;DHT22;52945;51.908;8.364;2024-02-14T04:57:57;10.90;74.10
66140;DHT22;52945;51.908;8.364;2024-02-14T05:00:58;10.80;74.10
66140;DHT22;52945;51.908;8.364;2024-02-14T05:03:59;10.80;74.50
66140;DHT22;52945;51.908;8.364;2024-02-14T05:06:59;10.90;75.00
66140;DHT22;52945;51.908;8.364;2024-02-14T05:10:00;10.90;75.40
66140;DHT22;52945;51.908;8.364;2024-02-14T05:13:01;10.90;75.70
66140;DHT22;52945;51.908;8.364;2024-02-14T05:16:05;10.90;75.80
66140;DHT22;52945;51.908;8.364;2024-02-14T05:19:05;10.80;75.90
66140;DHT22;52945;51.908;8.364;2024-02-14T05:22:06;10.80;76.00
66140;DHT22;52945;51.908;8.364;2024-02-14T05:25:07;10.80;76.30
66140;DHT22;52945;51.908;8.364;2024-02-14T05:28:10;10.80;76.70
66140;DHT22;52945;51.908;8.364;2024-02-14T05:31:15;10.80;76.80
66140;DHT22;52945;51.908;8.364;2024-02-14T05:34:16;10.80;76.90
66140;DHT22;52945;51.908;8.364;2024-02-14T05:37:17;10.90;77.30
66140;DHT22;52945;51.908;8.364;2024-02-14T05:40:17;10.90;77.50
66140;DHT22;52945;51.908;8.364;2024-02-14T05:43:18;10.80;77.70
66140;DHT22;52945;51.908;8.364;2024-02-14T05:46:19;10.80;77.70
66140;DHT22;52945;51.908;8.364;2024-02-14T05:49:22;10.90;77.90
66140;DHT22;52945;51.908;8.364;2024-02-14T05:52:22;10.80;77.90
66140;DHT22;52945;51.908;8.364;2024-02-14T05:55:23;10.80;78.10
66140;DHT22;52945;51.908;8.364;2024-02-14T05:58:24;10.80;78.20
66140;DHT22;52945;51.908;8.364;2024-02-14T06:01:28;10.90;78.30
66140;DHT22;52945;51.908;8.364;2024-02-14T06:04:29;10.80;78.40
66140;DHT22;52945;51.908;8.364;2024-02-14T06:07:30;10.90;78.70
66140;DHT22;52945;51.908;8.364;2024-02-14T06:10:30;10.80;78.80
66140;DHT22;52945;51.908;8.364;2024-02-14T06:13:31;10.80;78.80
66140;DHT22;52945;51.908;8.364;2024-02-14T06:16:33;10.90;79.00
66140;DHT22;52945;51.908;8.364;2024-02-14T06:19:33;10.80;79.10
66140;DHT22;52945;51.908;8.364;2024-02-14T06:22:35;10.90;79.30
66140;DHT22;52945;51.908;8.364;2024-02-14T06:25:35;10.90;79.30
66140;DHT22;52945;51.908;8.364;2024-02-14T06:28:36;10.90;79.20
66140;DHT22;52945;51.908;8.364;2024-02-14T06:31:37;11.00;79.20
66140;DHT22;52945;51.908;8.364;2024-02-14T06:34:37;10.90;79.50
66140;DHT22;52945;51.908;8.364;2024-02-14T06:37:39;10.90;79.50
66140;DHT22;52945;51.908;8.364;2024-02-14T06:40:39;10.90;79.70
66140;DHT22;52945;51.908;8.364;2024-02-14T06:43:40;10.80;79.90
66140;DHT22;52945;51.908;8.364;2024-02-14T06:46:41;11.00;79.80
66140;DHT22;52945;51.908;8.364;2024-02-14T06:49:42;11.00;80.00
66140;DHT22;52945;51.908;8.364;2024-02-14T06:52:43;10.90;80.00
66140;DHT22;52945;51.908;8.364;2024-02-14T06:55:43;10.90;80.20
66140;DHT22;52945;51.908;8.364;2024-02-14T06:58:44;10.90;80.30
66140;DHT22;52945;51.908;8.364;2024-02-14T07:01:45;10.90;80.20
66140;DHT22;52945;51.908;8.364;2024-02-14T07:04:46;11.00;80.10
66140;DHT22;52945;51.908;8.364;2024-02-14T07:07:46;10.90;80.10
66140;DHT22;52945;51.908;8.364;2024-02-14T07:10:47;11.00;80.00
66140;DHT22;52945;51.908;8.364;2024-02-14T07:13:47;11.00;80.00
66140;DHT22;52945;51.908;8.364;2024-02-14T07:16:48;11.00;80.10
66140;DHT22;52945;51.908;8.364;2024-02-14T07:19:48;11.00;80.10
66140;DHT22;52945;51.908;8.364;2024-02-14T07:22:50;11.00;80.10
66140;DHT22;52945;51.908;8.364;2024-02-14T07:25:53;11.10;79.90
66140;DHT22;52945;51.908;8.364;2024-02-14T07:28:54;11.10;79.80
66140;DHT22;52945;51.908;8.364;2024-02-14T07:31:55;11.20;79.80
66140;DHT22;52945;51.908;8.364;2024-02-14T07:34:55;11.10;79.70
66140;DHT22;52945;51.908;8.364;2024-02-14T07:37:56;11.20;79.70
66140;DHT22;52945;51.908;8.364;2024-02-14T07:40:57;11.20;79.60
66140;DHT22;52945;51.908;8.364;2024-02-14T07:43:57;11.20;79.60
66140;DHT22;52945;51.908;8.364;2024-02-14T07:46:58;11.20;79.60
66140;DHT22;52945;51.908;8.364;2024-02-14T07:49:58;11.20;79.50
66140;DHT22;52945;51.908;8.364;2024-02-14T07:52:59;11.30;79.40
66140;DHT22;52945;51.908;8.364;2024-02-14T07:55:59;11.40;79.30
66140;DHT22;52945;51.908;8.364;2024-02-14T07:59:02;11.40;79.30
66140;DHT22;52945;51.908;8.364;2024-02-14T08:02:02;11.40;79.20
66140;DHT22;52945;51.908;8.364;2024-02-14T08:05:03;11.40;79.10
66140;DHT22;52945;51.908;8.364;2024-02-14T08:08:09;11.50;79.20
66140;DHT22;52945;51.908;8.364;2024-02-14T08:11:09;11.50;79.20
66140;DHT22;52945;51.908;8.364;2024-02-14T08:14:12;11.50;79.40
66140;DHT22;52945;51.908;8.364;2024-02-14T08:17:13;11.50;79.30
66140;DHT22;52945;51.908;8.364;2024-02-14T08:20:13;11.50;79.30
66140;DHT22;52945;51.908;8.364;2024-02-14T08:23:14;11.50;79.30
66140;DHT22;52945;51.908;8.364;2024-02-14T08:26:16;11.60;79.20
66140;DHT22;52945;51.908;8.364;2024-02-14T08:29:16;11.60;79.40
66140;DHT22;52945;51.908;8.364;2024-02-14T08:32:17;11.60;79.30
66140;DHT22;52945;51.908;8.364;2024-02-14T08:35:18;11.60;79.30
66140;DHT22;52945;51.908;8.364;2024-02-14T08:38:19;11.60;79.30
66140;DHT22;52945;51.908;8.364;2024-02-14T08:41:21;11.60;79.40
66140;DHT22;52945;51.908;8.364;2024-02-14T08:44:23;11.60;79.20
66140;DHT22;52945;51.908;8.364;2024-02-14T08:47:24;11.60;79.30
66140;DHT22;52945;51.908;8.364;2024-02-14T08:50:24;11.60;79.40
66140;DHT22;52945;51.908;8.364;2024-02-14T08:53:25;11.70;79.20
66140;DHT22;52945;51.908;8.364;2024-02-14T08:56:25;11.70;79.20
66140;DHT22;52945;51.908;8.364;2024-02-14T08:59:26;11.70;79.30
66140;DHT22;52945;51.908;8.364;2024-02-14T09:02:27;11.70;79.30
66140;DHT22;52945;51.908;8.364;2024-02-14T09:05:27;11.60;79.40
66140;DHT22;52945;51.908;8.364;2024-02-14T09:08:31;11.70;79.40
66140;DHT22;52945;51.908;8.364;2024-02-14T09:11:31;11.80;79.30
66140;DHT22;52945;51.908;8.364;2024-02-14T09:14:32;11.80;79.30
66140;DHT22;52945;51.908;8.364;2024-02-14T09:17:32;11.90;79.20
66140;DHT22;52945;51.908;8.364;2024-02-14T09:20:33;11.80;79.40
66140;DHT22;52945;51.908;8.364;2024-02-14T09:23:34;11.90;79.40
66140;DHT22;52945;51.908;8.364;2024-02-14T09:26:34;11.90;79.30
66140;DHT22;52945;51.908;8.364;2024-02-14T09:29:35;11.90;79.40
66140;DHT22;52945;51.908;8.364;2024-02-14T09:32:38;12.00;79.40
66140;DHT22;52945;51.908;8.364;2024-02-14T09:35:39;12.00;79.30
66140;DHT22;52945;51.908;8.364;2024-02-14T09:38:46;12.10;79.30
66140;DHT22;52945;51.908;8.364;2024-02-14T09:41:51;12.10;79.40
66140;DHT22;52945;51.908;8.364;2024-02-14T09:44:58;12.00;79.30
66140;DHT22;52945;51.908;8.364;2024-02-14T09:48:00;12.00;79.40
66140;DHT22;52945;51.908;8.364;2024-02-14T09:51:01;12.10;79.40
66140;DHT22;52945;51.908;8.364;2024-02-14T09:54:03;12.10;79.20
66140;DHT22;52945;51.908;8.364;2024-02-14T09:57:04;12.20;79.20
66140;DHT22;52945;51.908;8.364;2024-02-14T10:00:06;12.20;79.20
66140;DHT22;52945;51.908;8.364;2024-02-14T10:11:03;12.30;79.20
66140;DHT22;52945;51.908;8.364;2024-02-14T10:14:04;12.40;79.00
66140;DHT22;52945;51.908;8.364;2024-02-14T10:17:07;12.40;79.10
66140;DHT22;52945;51.908;8.364;2024-02-14T10:20:16;12.50;79.10
66140;DHT22;52945;51.908;8.364;2024-02-14T10:23:16;12.50;79.00
66140;DHT22;52945;51.908;8.364;2024-02-14T10:26:17;12.60;78.70
66140;DHT22;52945;51.908;8.364;2024-02-14T10:29:19;12.60;78.70
66140;DHT22;52945;51.908;8.364;2024-02-14T10:32:20;12.50;78.70
66140;DHT22;52945;51.908;8.364;2024-02-14T10:35:22;12.60;78.50
66140;DHT22;52945;51.908;8.364;2024-02-14T10:38:24;12.60;78.60
66140;DHT22;52945;51.908;8.364;2024-02-14T10:41:26;12.70;78.30
66140;DHT22;52945;51.908;8.364;2024-02-14T10:44:31;12.70;78.50
66140;DHT22;52945;51.908;8.364;2024-02-14T10:47:36;12.70;78.50
66140;DHT22;52945;51.908;8.364;2024-02-14T10:50:41;12.80;78.40
66140;DHT22;52945;51.908;8.364;2024-02-14T10:53:44;12.70;78.60
66140;DHT22;52945;51.908;8.364;2024-02-14T10:56:49;12.70;78.60
66140;DHT22;52945;51.908;8.364;2024-02-14T10:59:51;12.80;78.40
66140;DHT22;52945;51.908;8.364;2024-02-14T11:02:53;12.80;78.10
66140;DHT22;52945;51.908;8.364;2024-02-14T11:05:56;12.90;78.20
66140;DHT22;52945;51.908;8.364;2024-02-14T11:09:03;12.90;78.20
66140;DHT22;52945;51.908;8.364;2024-02-14T11:12:11;12.90;78.50
66140;DHT22;52945;51.908;8.364;2024-02-14T11:15:16;12.90;78.40
66140;DHT22;52945;51.908;8.364;2024-02-14T11:18:25;13.00;78.30
66140;DHT22;52945;51.908;8.364;2024-02-14T11:21:28;12.90;78.30
66140;DHT22;52945;51.908;8.364;2024-02-14T11:24:30;13.00;78.00
66140;DHT22;52945;51.908;8.364;2024-02-14T11:27:32;13.00;78.10
66140;DHT22;52945;51.908;8.364;2024-02-14T11:30:36;13.00;78.10
66140;DHT22;52945;51.908;8.364;2024-02-14T11:33:36;13.00;77.90
66140;DHT22;52945;51.908;8.364;2024-02-14T11:36:38;13.00;77.80
66140;DHT22;52945;51.908;8.364;2024-02-14T11:39:39;13.00;77.80
66140;DHT22;52945;51.908;8.364;2024-02-14T11:42:40;13.10;77.70
66140;DHT22;52945;51.908;8.364;2024-02-14T11:45:42;13.10;77.60
66140;DHT22;52945;51.908;8.364;2024-02-14T11:48:43;13.10;77.60
66140;DHT22;52945;51.908;8.364;2024-02-14T11:51:46;13.10;77.70
66140;DHT22;52945;51.908;8.364;2024-02-14T11:54:48;13.10;77.50
66140;DHT22;52945;51.908;8.364;2024-02-14T11:57:52;13.10;77.70
66140;DHT22;52945;51.908;8.364;2024-02-14T12:00:53;13.20;77.80
66140;DHT22;52945;51.908;8.364;2024-02-14T12:03:54;13.10;77.90
66140;DHT22;52945;51.908;8.364;2024-02-14T12:06:54;13.10;78.20
66140;DHT22;52945;51.908;8.364;2024-02-14T12:09:55;13.10;78.30
66140;DHT22;52945;51.908;8.364;2024-02-14T12:12:56;13.10;78.30
66140;DHT22;52945;51.908;8.364;2024-02-14T12:15:56;13.10;78.20
66140;DHT22;52945;51.908;8.364;2024-02-14T12:19:15;13.20;78.30
66140;DHT22;52945;51.908;8.364;2024-02-14T12:22:16;13.20;78.20
66140;DHT22;52945;51.908;8.364;2024-02-14T12:25:20;13.20;78.20
66140;DHT22;52945;51.908;8.364;2024-02-14T12:28:22;13.20;78.30
66140;DHT22;52945;51.908;8.364;2024-02-14T12:31:25;13.20;78.50
66140;DHT22;52945;51.908;8.364;2024-02-14T12:34:27;13.20;78.50
66140;DHT22;52945;51.908;8.364;2024-02-14T12:37:29;13.20;78.60
66140;DHT22;52945;51.908;8.364;2024-02-14T12:40:30;13.20;78.80
66140;DHT22;52945;51.908;8.364;2024-02-14T12:43:32;13.20;78.70
66140;DHT22;52945;51.908;8.364;2024-02-14T12:46:33;13.20;78.60
66140;DHT22;52945;51.908;8.364;2024-02-14T12:49:34;13.30;78.50
66140;DHT22;52945;51.908;8.364;2024-02-14T12:52:35;13.20;78.50
66140;DHT22;52945;51.908;8.364;2024-02-14T12:55:36;13.20;78.50
66140;DHT22;52945;51.908;8.364;2024-02-14T12:58:36;13.30;78.40
66140;DHT22;52945;51.908;8.364;2024-02-14T13:01:37;13.20;78.60
66140;DHT22;52945;51.908;8.364;2024-02-14T13:04:37;13.40;78.60
66140;DHT22;52945;51.908;8.364;2024-02-14T13:07:39;13.30;78.50
66140;DHT22;52945;51.908;8.364;2024-02-14T13:10:39;13.30;78.60
66140;DHT22;52945;51.908;8.364;2024-02-14T13:13:40;13.30;78.60
66140;DHT22;52945;51.908;8.364;2024-02-14T13:16:42;13.30;78.50
66140;DHT22;52945;51.908;8.364;2024-02-14T13:19:43;13.40;78.30
66140;DHT22;52945;51.908;8.364;2024-02-14T13:22:44;13.40;78.20
66140;DHT22;52945;51.908;8.364;2024-02-14T13:25:44;13.40;78.20
66140;DHT22;52945;51.908;8.364;2024-02-14T13:28:45;13.50;78.00
66140;DHT22;52945;51.908;8.364;2024-02-14T13:31:45;13.50;78.00
66140;DHT22;52945;51.908;8.364;2024-02-14T13:34:46;13.50;78.00
66140;DHT22;52945;51.908;8.364;2024-02-14T13:37:48;13.60;77.90
66140;DHT22;52945;51.908;8.364;2024-02-14T13:40:50;13.60;77.70
66140;DHT22;52945;51.908;8.364;2024-02-14T13:43:51;13.60;77.50
66140;DHT22;52945;51.908;8.364;2024-02-14T13:46:51;13.60;77.40
66140;DHT22;52945;51.908;8.364;2024-02-14T13:49:53;13.70;77.40
66140;DHT22;52945;51.908;8.364;2024-02-14T13:52:53;13.70;77.20
66140;DHT22;52945;51.908;8.364;2024-02-14T13:55:54;13.70;77.20
66140;DHT22;52945;51.908;8.364;2024-02-14T13:58:56;13.70;77.20
66140;DHT22;52945;51.908;8.364;2024-02-14T14:01:56;13.70;77.20
66140;DHT22;52945;51.908;8.364;2024-02-14T14:04:57;13.70;77.10
66140;DHT22;52945;51.908;8.364;2024-02-14T14:07:57;13.70;77.10
66140;DHT22;52945;51.908;8.364;2024-02-14T14:11:00;13.70;76.80
66140;DHT22;52945;51.908;8.364;2024-02-14T14:14:00;13.70;77.00
66140;DHT22;52945;51.908;8.364;2024-02-14T14:17:01;13.80;76.80
66140;DHT22;52945;51.908;8.364;2024-02-14T14:20:02;13.70;76.90
66140;DHT22;52945;51.908;8.364;2024-02-14T14:23:04;13.80;76.90
66140;DHT22;52945;51.908;8.364;2024-02-14T14:26:06;13.80;76.90
66140;DHT22;52945;51.908;8.364;2024-02-14T14:29:07;13.80;76.80
66140;DHT22;52945;51.908;8.364;2024-02-14T14:32:09;13.80;76.80
66140;DHT22;52945;51.908;8.364;2024-02-14T14:35:10;13.80;76.70
66140;DHT22;52945;51.908;8.364;2024-02-14T14:38:11;13.70;76.70
66140;DHT22;52945;51.908;8.364;2024-02-14T14:41:11;13.90;76.60
66140;DHT22;52945;51.908;8.364;2024-02-14T14:44:12;13.90;76.60
66140;DHT22;52945;51.908;8.364;2024-02-14T14:47:13;13.90;76.50
66140;DHT22;52945;51.908;8.364;2024-02-14T14:50:15;14.00;76.20
66140;DHT22;52945;51.908;8.364;2024-02-14T14:53:18;13.90;76.20
66140;DHT22;52945;51.908;8.364;2024-02-14T14:56:19;14.00;76.10
66140;DHT22;52945;51.908;8.364;2024-02-14T14:59:25;14.10;76.00
66140;DHT22;52945;51.908;8.364;2024-02-14T15:02:26;14.00;75.90
66140;DHT22;52945;51.908;8.364;2024-02-14T15:05:27;14.10;76.20
66140;DHT22;52945;51.908;8.364;2024-02-14T15:08:27;14.10;76.20
66140;DHT22;52945;51.908;8.364;2024-02-14T15:11:28;14.00;76.30
66140;DHT22;52945;51.908;8.364;2024-02-14T15:14:28;14.00;76.90
66140;DHT22;52945;51.908;8.364;2024-02-14T15:17:29;14.00;77.30
66140;DHT22;52945;51.908;8.364;2024-02-14T15:20:30;14.00;77.60
66140;DHT22;52945;51.908;8.364;2024-02-14T15:23:31;13.90;77.90
66140;DHT22;52945;51.908;8.364;2024-02-14T15:26:31;14.00;78.00
66140;DHT22;52945;51.908;8.364;2024-02-14T15:29:40;13.90;78.10
66140;DHT22;52945;51.908;8.364;2024-02-14T15:32:59;13.90;78.40
66140;DHT22;52945;51.908;8.364;2024-02-14T15:36:19;13.90;78.50
66140;DHT22;52945;51.908;8.364;2024-02-14T15:39:19;13.80;78.60
66140;DHT22;52945;51.908;8.364;2024-02-14T15:42:20;13.80;78.80
66140;DHT22;52945;51.908;8.364;2024-02-14T15:45:20;13.80;78.70
66140;DHT22;52945;51.908;8.364;2024-02-14T15:48:21;13.80;78.80
66140;DHT22;52945;51.908;8.364;2024-02-14T15:51:24;13.90;78.90
66140;DHT22;52945;51.908;8.364;2024-02-14T15:54:27;13.70;79.10
66140;DHT22;52945;51.908;8.364;2024-02-14T15:57:28;13.70;79.30
66140;DHT22;52945;51.908;8.364;2024-02-14T16:00:29;13.80;79.30
66140;DHT22;52945;51.908;8.364;2024-02-14T16:03:33;13.70;79.30
66140;DHT22;52945;51.908;8.364;2024-02-14T16:06:34;13.70;79.40
66140;DHT22;52945;51.908;8.364;2024-02-14T16:09:37;13.70;79.70
66140;DHT22;52945;51.908;8.364;2024-02-14T16:12:38;13.70;79.80
66140;DHT22;52945;51.908;8.364;2024-02-14T16:15:40;13.70;79.90
66140;DHT22;52945;51.908;8.364;2024-02-14T16:18:41;13.60;80.10
66140;DHT22;52945;51.908;8.364;2024-02-14T16:21:41;13.60;80.10
66140;DHT22;52945;51.908;8.364;2024-02-14T16:24:42;13.60;80.20
66140;DHT22;52945;51.908;8.364;2024-02-14T16:27:43;13.60;80.30
66140;DHT22;52945;51.908;8.364;2024-02-14T16:30:46;13.60;80.30
66140;DHT22;52945;51.908;8.364;2024-02-14T16:33:46;13.60;80.50
66140;DHT22;52945;51.908;8.364;2024-02-14T16:36:48;13.50;80.60
66140;DHT22;52945;51.908;8.364;2024-02-14T16:39:49;13.50;80.70
66140;DHT22;52945;51.908;8.364;2024-02-14T16:42:49;13.50;80.60
66140;DHT22;52945;51.908;8.364;2024-02-14T16:45:50;13.50;80.80
66140;DHT22;52945;51.908;8.364;2024-02-14T16:48:52;13.40;81.00
66140;DHT22;52945;51.908;8.364;2024-02-14T16:51:53;13.40;81.10
66140;DHT22;52945;51.908;8.364;2024-02-14T16:54:53;13.30;81.40
66140;DHT22;52945;51.908;8.364;2024-02-14T16:57:54;13.30;81.50
66140;DHT22;52945;51.908;8.364;2024-02-14T17:00:56;13.20;81.60
66140;DHT22;52945;51.908;8.364;2024-02-14T17:03:57;13.20;81.70
66140;DHT22;52945;51.908;8.364;2024-02-14T17:06:58;13.20;81.70
66140;DHT22;52945;51.908;8.364;2024-02-14T17:09:58;13.20;81.70
66140;DHT22;52945;51.908;8.364;2024-02-14T17:13:00;13.20;81.80
66140;DHT22;52945;51.908;8.364;2024-02-14T17:16:00;13.20;81.80
66140;DHT22;52945;51.908;8.364;2024-02-14T17:19:01;13.20;81.70
66140;DHT22;52945;51.908;8.364;2024-02-14T17:22:02;13.20;81.80
66140;DHT22;52945;51.908;8.364;2024-02-14T17:25:05;13.10;81.90
66140;DHT22;52945;51.908;8.364;2024-02-14T17:28:08;13.10;82.10
66140;DHT22;52945;51.908;8.364;2024-02-14T17:31:09;13.10;82.20
66140;DHT22;52945;51.908;8.364;2024-02-14T17:34:11;13.10;82.30
66140;DHT22;52945;51.908;8.364;2024-02-14T17:37:12;13.10;82.30
66140;DHT22;52945;51.908;8.364;2024-02-14T17:40:13;13.20;82.20
66140;DHT22;52945;51.908;8.364;2024-02-14T17:43:13;13.10;82.30
66140;DHT22;52945;51.908;8.364;2024-02-14T17:46:14;13.10;82.30
66140;DHT22;52945;51.908;8.364;2024-02-14T17:49:15;13.10;82.30
66140;DHT22;52945;51.908;8.364;2024-02-14T17:52:16;13.10;82.30
66140;DHT22;52945;51.908;8.364;2024-02-14T17:55:18;13.10;82.50
66140;DHT22;52945;51.908;8.364;2024-02-14T17:58:19;13.10;82.50
66140;DHT22;52945;51.908;8.364;2024-02-14T18:01:21;13.10;82.40
66140;DHT22;52945;51.908;8.364;2024-02-14T18:04:21;13.10;82.60
66140;DHT22;52945;51.908;8.364;2024-02-14T18:07:24;13.10;82.70
66140;DHT22;52945;51.908;8.364;2024-02-14T18:10:25;13.20;82.60
66140;DHT22;52945;51.908;8.364;2024-02-14T18:13:25;13.10;82.60
66140;DHT22;52945;51.908;8.364;2024-02-14T18:16:26;13.10;82.40
66140;DHT22;52945;51.908;8.364;2024-02-14T18:19:27;13.10;82.50
66140;DHT22;52945;51.908;8.364;2024-02-14T18:22:29;13.10;82.60
66140;DHT22;52945;51.908;8.364;2024-02-14T18:25:30;13.10;82.50
66140;DHT22;52945;51.908;8.364;2024-02-14T18:28:31;13.10;82.40
66140;DHT22;52945;51.908;8.364;2024-02-14T18:31:34;13.20;82.50
66140;DHT22;52945;51.908;8.364;2024-02-14T18:34:34;13.20;82.40
66140;DHT22;52945;51.908;8.364;2024-02-14T18:37:35;13.20;82.50
66140;DHT22;52945;51.908;8.364;2024-02-14T18:40:38;13.20;82.50
66140;DHT22;52945;51.908;8.364;2024-02-14T18:43:39;13.20;82.60
66140;DHT22;52945;51.908;8.364;2024-02-14T18:46:39;13.20;82.60
66140;DHT22;52945;51.908;8.364;2024-02-14T18:49:45;13.20;82.70
66140;DHT22;52945;51.908;8.364;2024-02-14T18:52:46;13.20;82.60
66140;DHT22;52945;51.908;8.364;2024-02-14T18:55:49;13.20;82.70
66140;DHT22;52945;51.908;8.364;2024-02-14T18:58:50;13.20;82.60
66140;DHT22;52945;51.908;8.364;2024-02-14T19:01:50;13.20;82.70
66140;DHT22;52945;51.908;8.364;2024-02-14T19:04:51;13.20;82.60
66140;DHT22;52945;51.908;8.364;2024-02-14T19:07:52;13.30;82.50
66140;DHT22;52945;51.908;8.364;2024-02-14T19:10:52;13.30;82.50
66140;DHT22;52945;51.908;8.364;2024-02-14T19:13:56;13.20;82.50
66140;DHT22;52945;51.908;8.364;2024-02-14T19:16:57;13.20;82.60